Time,TemperatureF,DewpointF,PressureIn,WindDirection,WindDirectionDegrees,WindSpeedMPH,WindSpeedGustMPH,Humidity,HourlyPrecipIn,Conditions,Clouds,dailyrainin,SoftwareType,DateUTC
2013-06-26 00:05:00,69.3,68.7,29.79,WSW,248,0.0,0.0,98,0.00,,,0.00,VWS V14.01,2013-06-26 05:05:00,
2013-06-26 00:10:00,69.1,68.5,29.79,WSW,248,0.0,0.0,98,0.00,,,0.00,VWS V14.01,2013-06-26 05:10:00,
2013-06-26 00:15:00,69.1,68.5,29.79,WSW,248,0.0,0.0,98,0.00,,,0.00,VWS V14.01,2013-06-26 05:15:00,
2013-06-26 00:20:00,68.9,68.3,29.79,WSW,248,0.0,0.0,98,0.00,,,0.00,VWS V14.01,2013-06-26 05:20:00,
2013-06-26 00:25:00,68.9,68.3,29.79,WSW,248,0.0,0.0,98,0.00,,,0.00,VWS V14.01,2013-06-26 05:25:00,
2013-06-26 00:30:00,68.7,68.1,29.79,WSW,248,0.0,0.0,98,0.00,,,0.00,VWS V14.01,2013-06-26 05:30:00,
2013-06-26 00:35:00,68.7,68.1,29.79,WSW,248,0.0,0.0,98,0.00,,,0.00,VWS V14.01,2013-06-26 05:35:00,
2013-06-26 00:40:00,68.5,68.0,29.79,WSW,248,0.0,0.0,98,0.00,,,0.00,VWS V14.01,2013-06-26 05:40:00,
2013-06-26 00:45:00,68.5,68.0,29.79,WSW,248,0.0,0.0,98,0.00,,,0.00,VWS V14.01,2013-06-26 05:45:00,
2013-06-26 00:50:00,68.4,67.8,29.79,WSW,248,0.0,0.0,98,0.00,,,0.00,VWS V14.01,2013-06-26 05:50:00,
2013-06-26 00:55:00,68.4,67.8,29.79,WSW,248,0.0,0.0,98,0.00,,,0.00,VWS V14.01,2013-06-26 05:55:00,
2013-06-26 01:00:00,68.4,67.8,29.79,WSW,248,0.0,0.0,98,0.00,,,0.00,VWS V14.01,2013-06-26 06:00:00,
2013-06-26 01:05:00,68.2,67.6,29.79,WSW,248,0.0,0.0,98,0.00,,,0.00,VWS V14.01,2013-06-26 06:05:00,
2013-06-26 01:10:00,66.0,65.4,29.79,WSW,248,0.0,0.0,98,0.00,,,0.00,VWS V14.01,2013-06-26 06:10:00,
2013-06-26 01:16:00,68.0,67.4,29.79,WSW,248,0.0,0.0,98,0.00,,,0.00,VWS V14.01,2013-06-26 06:16:00,
2013-06-26 01:21:00,68.0,67.4,29.76,WSW,248,0.0,0.0,98,0.00,,,0.00,VWS V14.01,2013-06-26 06:21:00,
2013-06-26 01:26:00,67.8,67.2,29.76,WSW,248,0.0,0.0,98,0.00,,,0.00,VWS V14.01,2013-06-26 06:26:00,
2013-06-26 01:31:00,67.8,67.2,29.76,WSW,248,0.0,0.0,98,0.00,,,0.00,VWS V14.01,2013-06-26 06:31:00,
2013-06-26 01:36:00,67.6,67.1,29.76,WSW,248,0.0,0.0,98,0.00,,,0.00,VWS V14.01,2013-06-26 06:36:00,
2013-06-26 01:41:00,67.6,67.1,29.76,WSW,248,0.0,0.0,98,0.00,,,0.00,VWS V14.01,2013-06-26 06:41:00,
2013-06-26 01:46:00,67.5,66.9,29.76,WSW,248,0.0,0.0,98,0.00,,,0.00,VWS V14.01,2013-06-26 06:46:00,
2013-06-26 01:51:00,67.5,66.9,29.76,WSW,248,0.0,0.0,98,0.00,,,0.00,VWS V14.01,2013-06-26 06:51:00,
2013-06-26 01:56:00,67.3,66.7,29.76,WSW,248,0.0,0.0,98,0.00,,,0.00,VWS V14.01,2013-06-26 06:56:00,
2013-06-26 02:01:00,67.3,66.7,29.76,WSW,248,0.0,0.0,98,0.00,,,0.00,VWS V14.01,2013-06-26 07:01:00,
2013-06-26 02:06:00,67.3,66.7,29.76,WSW,248,0.0,0.0,98,0.00,,,0.00,VWS V14.01,2013-06-26 07:06:00,
2013-06-26 02:11:00,67.3,66.7,29.76,WSW,248,0.0,0.0,98,0.00,,,0.00,VWS V14.01,2013-06-26 07:11:00,
2013-06-26 02:16:00,67.5,66.9,29.76,WSW,248,0.0,0.0,98,0.00,,,0.00,VWS V14.01,2013-06-26 07:16:00,
2013-06-26 02:21:00,67.5,66.9,29.76,WSW,248,0.0,0.0,98,0.00,,,0.00,VWS V14.01,2013-06-26 07:21:00,
2013-06-26 02:27:00,67.5,66.9,29.76,WSW,248,0.0,0.0,98,0.00,,,0.00,VWS V14.01,2013-06-26 07:27:00,
2013-06-26 02:32:00,67.5,66.9,29.76,WSW,248,0.0,0.0,98,0.00,,,0.00,VWS V14.01,2013-06-26 07:32:00,
2013-06-26 02:37:00,67.5,66.9,29.76,WSW,248,0.0,0.0,98,0.00,,,0.00,VWS V14.01,2013-06-26 07:37:00,
2013-06-26 02:42:00,67.5,66.9,29.76,WSW,248,0.0,0.0,98,0.00,,,0.00,VWS V14.01,2013-06-26 07:42:00,
2013-06-26 02:47:00,67.5,66.9,29.76,WSW,248,0.0,0.0,98,0.00,,,0.00,VWS V14.01,2013-06-26 07:47:00,
2013-06-26 02:52:00,67.5,66.9,29.76,WSW,248,0.0,0.0,98,0.00,,,0.00,VWS V14.01,2013-06-26 07:52:00,
2013-06-26 02:57:00,67.6,67.1,29.76,WSW,248,0.0,0.0,98,0.00,,,0.00,VWS V14.01,2013-06-26 07:57:00,
2013-06-26 03:02:00,67.6,67.1,29.76,WSW,248,0.0,0.0,98,0.00,,,0.00,VWS V14.01,2013-06-26 08:02:00,
2013-06-26 03:07:00,67.6,67.1,29.76,WSW,248,0.0,0.0,98,0.00,,,0.00,VWS V14.01,2013-06-26 08:07:00,
2013-06-26 03:12:00,67.6,67.1,29.76,WSW,248,0.0,0.0,98,0.00,,,0.00,VWS V14.01,2013-06-26 08:12:00,
2013-06-26 03:17:00,67.6,67.1,29.76,WSW,248,0.0,0.0,98,0.00,,,0.00,VWS V14.01,2013-06-26 08:17:00,
2013-06-26 03:22:00,67.5,66.9,29.74,WSW,248,0.0,0.0,98,0.00,,,0.00,VWS V14.01,2013-06-26 08:22:00,
2013-06-26 03:27:00,67.5,66.9,29.74,WSW,248,0.0,0.0,98,0.00,,,0.00,VWS V14.01,2013-06-26 08:27:00,
2013-06-26 03:33:00,67.5,66.9,29.74,WSW,248,0.0,0.0,98,0.00,,,0.00,VWS V14.01,2013-06-26 08:33:00,
2013-06-26 03:38:00,67.5,66.9,29.76,WSW,248,0.0,0.0,98,0.00,,,0.00,VWS V14.01,2013-06-26 08:38:00,
2013-06-26 03:43:00,67.5,66.9,29.76,WSW,248,0.0,0.0,98,0.00,,,0.00,VWS V14.01,2013-06-26 08:43:00,
2013-06-26 03:48:00,67.5,66.9,29.76,WSW,248,0.0,0.0,98,0.00,,,0.00,VWS V14.01,2013-06-26 08:48:00,
2013-06-26 03:53:00,67.6,67.1,29.76,WSW,248,0.0,0.0,98,0.00,,,0.00,VWS V14.01,2013-06-26 08:53:00,
2013-06-26 03:58:00,67.6,67.1,29.76,WSW,248,0.0,0.0,98,0.00,,,0.00,VWS V14.01,2013-06-26 08:58:00,
2013-06-26 04:03:00,67.6,67.1,29.76,WSW,248,0.0,0.0,98,0.00,,,0.00,VWS V14.01,2013-06-26 09:03:00,
2013-06-26 04:08:00,67.6,67.1,29.76,WSW,248,0.0,0.0,98,0.00,,,0.00,VWS V14.01,2013-06-26 09:08:00,
2013-06-26 04:13:00,67.6,67.1,29.76,WSW,248,0.0,0.0,98,0.00,,,0.00,VWS V14.01,2013-06-26 09:13:00,
2013-06-26 04:18:00,67.6,67.1,29.76,WSW,248,0.0,0.0,98,0.00,,,0.00,VWS V14.01,2013-06-26 09:18:00,
2013-06-26 04:23:00,67.6,67.1,29.76,WSW,248,0.0,0.0,98,0.00,,,0.00,VWS V14.01,2013-06-26 09:23:00,
2013-06-26 04:28:00,67.6,67.1,29.76,WSW,248,0.0,0.0,98,0.00,,,0.00,VWS V14.01,2013-06-26 09:28:00,
2013-06-26 04:33:00,67.6,67.1,29.76,WSW,248,0.0,0.0,98,0.00,,,0.00,VWS V14.01,2013-06-26 09:33:00,
2013-06-26 04:39:00,67.6,67.1,29.74,WSW,248,0.0,0.0,98,0.00,,,0.00,VWS V14.01,2013-06-26 09:39:00,
2013-06-26 04:44:00,67.6,67.1,29.74,WSW,248,0.0,0.0,98,0.00,,,0.00,VWS V14.01,2013-06-26 09:44:00,
2013-06-26 04:49:00,67.5,66.9,29.74,WSW,248,0.0,0.0,98,0.00,,,0.00,VWS V14.01,2013-06-26 09:49:00,
2013-06-26 04:54:00,67.5,66.9,29.74,WSW,248,0.0,0.0,98,0.00,,,0.00,VWS V14.01,2013-06-26 09:54:00,
2013-06-26 04:59:00,67.3,66.7,29.74,WSW,248,0.0,0.0,98,0.00,,,0.00,VWS V14.01,2013-06-26 09:59:00,
2013-06-26 05:04:00,67.3,66.7,29.74,WSW,248,0.0,0.0,98,0.00,,,0.00,VWS V14.01,2013-06-26 10:04:00,
2013-06-26 05:09:00,67.1,66.5,29.76,WSW,248,0.0,0.0,98,0.00,,,0.00,VWS V14.01,2013-06-26 10:09:00,
2013-06-26 05:14:00,67.3,66.7,29.76,WSW,248,0.0,0.0,98,0.00,,,0.00,VWS V14.01,2013-06-26 10:14:00,
2013-06-26 05:19:00,67.3,66.7,29.76,WSW,248,0.0,0.0,98,0.00,,,0.00,VWS V14.01,2013-06-26 10:19:00,
2013-06-26 05:24:00,67.5,66.9,29.76,WSW,248,0.0,0.0,98,0.00,,,0.00,VWS V14.01,2013-06-26 10:24:00,
2013-06-26 05:29:00,67.6,67.1,29.76,WSW,248,0.0,0.0,98,0.00,,,0.00,VWS V14.01,2013-06-26 10:29:00,
2013-06-26 05:34:00,67.8,67.2,29.76,WSW,248,0.0,0.0,98,0.00,,,0.00,VWS V14.01,2013-06-26 10:34:00,
2013-06-26 05:39:00,68.0,67.4,29.76,WSW,248,0.0,0.0,98,0.00,,,0.00,VWS V14.01,2013-06-26 10:39:00,
2013-06-26 05:44:00,68.2,67.6,29.76,WSW,248,0.0,0.0,98,0.00,,,0.00,VWS V14.01,2013-06-26 10:44:00,
2013-06-26 05:50:00,68.4,67.8,29.76,WSW,248,0.0,0.0,98,0.00,,,0.00,VWS V14.01,2013-06-26 10:50:00,
2013-06-26 05:55:00,68.5,68.0,29.76,WSW,248,0.0,1.1,98,0.00,,,0.00,VWS V14.01,2013-06-26 10:55:00,
2013-06-26 06:00:00,69.1,68.5,29.76,WSW,248,0.0,0.0,98,0.00,,,0.00,VWS V14.01,2013-06-26 11:00:00,
2013-06-26 06:05:00,69.6,69.0,29.76,WSW,248,0.0,0.0,98,0.00,,,0.00,VWS V14.01,2013-06-26 11:05:00,
2013-06-26 06:10:00,70.0,69.4,29.76,WSW,248,0.9,1.1,98,0.00,,,0.00,VWS V14.01,2013-06-26 11:10:00,
2013-06-26 06:15:00,70.2,69.6,29.76,WSW,248,0.0,0.0,98,0.00,,,0.00,VWS V14.01,2013-06-26 11:15:00,
2013-06-26 06:20:00,70.5,69.9,29.76,WSW,248,0.0,1.1,98,0.00,,,0.00,VWS V14.01,2013-06-26 11:20:00,
2013-06-26 06:25:00,70.5,69.9,29.76,WSW,248,0.0,0.0,98,0.00,,,0.00,VWS V14.01,2013-06-26 11:25:00,
2013-06-26 06:30:00,70.5,69.9,29.76,WSW,248,1.1,2.0,98,0.00,,,0.00,VWS V14.01,2013-06-26 11:30:00,
2013-06-26 06:35:00,70.9,70.3,29.76,East,90,1.6,2.0,98,0.00,,,0.00,VWS V14.01,2013-06-26 11:35:00,
2013-06-26 06:40:00,70.9,70.3,29.76,ENE,68,1.3,2.0,98,0.00,,,0.00,VWS V14.01,2013-06-26 11:40:00,
2013-06-26 06:46:00,71.1,70.5,29.76,ENE,68,1.3,3.6,98,0.00,,,0.00,VWS V14.01,2013-06-26 11:46:00,
2013-06-26 06:51:00,71.2,70.7,29.76,ENE,68,2.9,2.9,98,0.00,,,0.00,VWS V14.01,2013-06-26 11:51:00,
2013-06-26 06:56:00,71.2,70.7,29.76,ENE,68,1.1,1.3,98,0.00,,,0.00,VWS V14.01,2013-06-26 11:56:00,
2013-06-26 07:01:00,71.2,70.7,29.76,NE,45,1.1,2.5,98,0.00,,,0.00,VWS V14.01,2013-06-26 12:01:00,
2013-06-26 07:06:00,71.6,71.0,29.76,ESE,112,0.0,1.6,98,0.00,,,0.00,VWS V14.01,2013-06-26 12:06:00,
2013-06-26 07:11:00,71.6,71.0,29.76,ESE,112,0.0,2.0,98,0.00,,,0.00,VWS V14.01,2013-06-26 12:11:00,
2013-06-26 07:16:00,71.6,71.0,29.76,ESE,112,0.0,1.1,98,0.00,,,0.00,VWS V14.01,2013-06-26 12:16:00,
2013-06-26 07:21:00,71.8,71.2,29.76,ENE,68,0.0,0.9,98,0.00,,,0.00,VWS V14.01,2013-06-26 12:21:00,
2013-06-26 07:26:00,71.8,71.2,29.76,ENE,68,0.0,2.2,98,0.00,,,0.00,VWS V14.01,2013-06-26 12:26:00,
2013-06-26 07:31:00,71.8,71.2,29.76,South,180,0.0,0.0,98,0.00,,,0.00,VWS V14.01,2013-06-26 12:31:00,
2013-06-26 07:36:00,72.0,71.4,29.76,West,270,1.3,1.3,98,0.00,,,0.00,VWS V14.01,2013-06-26 12:36:00,
2013-06-26 07:41:00,72.0,71.4,29.76,West,270,0.0,1.6,98,0.00,,,0.00,VWS V14.01,2013-06-26 12:41:00,
2013-06-26 07:46:00,72.0,71.4,29.76,West,270,0.0,1.1,98,0.00,,,0.00,VWS V14.01,2013-06-26 12:46:00,
2013-06-26 07:52:00,72.1,71.6,29.76,West,270,0.0,2.2,98,0.00,,,0.00,VWS V14.01,2013-06-26 12:52:00,
2013-06-26 07:57:00,72.1,71.6,29.76,SSW,202,1.3,3.1,98,0.00,,,0.00,VWS V14.01,2013-06-26 12:57:00,
2013-06-26 08:02:00,72.1,71.6,29.76,SSW,202,0.0,2.7,98,0.00,,,0.00,VWS V14.01,2013-06-26 13:02:00,
2013-06-26 08:07:00,72.1,71.6,29.76,East,90,1.1,3.1,98,0.00,,,0.00,VWS V14.01,2013-06-26 13:07:00,
2013-06-26 08:12:00,72.3,71.7,29.76,SSW,202,2.0,2.9,98,0.00,,,0.00,VWS V14.01,2013-06-26 13:12:00,
2013-06-26 08:14:00,72.3,71.7,29.76,West,270,0.0,2.9,98,0.00,,,0.00,VWS V14.01,2013-06-26 13:14:00,
2013-06-26 08:19:00,72.5,71.9,29.76,West,270,0.0,2.0,98,0.00,,,0.00,VWS V14.01,2013-06-26 13:19:00,
2013-06-26 08:24:00,72.7,72.1,29.76,East,90,1.3,2.7,98,0.00,,,0.00,VWS V14.01,2013-06-26 13:24:00,
2013-06-26 08:29:00,72.7,72.1,29.76,WSW,248,0.0,2.7,98,0.00,,,0.00,VWS V14.01,2013-06-26 13:29:00,
2013-06-26 08:34:00,72.9,72.3,29.76,WNW,292,1.6,2.2,98,0.00,,,0.00,VWS V14.01,2013-06-26 13:34:00,
2013-06-26 08:39:00,72.9,72.3,29.76,ENE,68,1.1,2.9,98,0.00,,,0.00,VWS V14.01,2013-06-26 13:39:00,
2013-06-26 08:44:00,73.0,72.4,29.76,NE,45,1.3,1.3,98,0.00,,,0.00,VWS V14.01,2013-06-26 13:44:00,
2013-06-26 08:50:00,73.2,72.6,29.76,NE,45,0.0,1.3,98,0.00,,,0.00,VWS V14.01,2013-06-26 13:50:00,
2013-06-26 08:55:00,73.4,72.8,29.76,NE,45,3.4,3.4,98,0.00,,,0.00,VWS V14.01,2013-06-26 13:55:00,
2013-06-26 09:00:00,73.6,73.0,29.76,WNW,292,2.0,2.2,98,0.00,,,0.00,VWS V14.01,2013-06-26 14:00:00,
2013-06-26 09:05:00,73.6,73.0,29.79,ENE,68,2.5,2.9,98,0.00,,,0.00,VWS V14.01,2013-06-26 14:05:00,
2013-06-26 09:10:00,73.6,73.0,29.79,SE,135,1.6,1.6,98,0.00,,,0.00,VWS V14.01,2013-06-26 14:10:00,
2013-06-26 09:15:00,73.6,73.0,29.79,WSW,248,0.9,1.3,98,0.00,,,0.00,VWS V14.01,2013-06-26 14:15:00,
2013-06-26 09:20:00,73.6,73.0,29.76,NE,45,0.0,1.6,98,0.00,,,0.00,VWS V14.01,2013-06-26 14:20:00,
2013-06-26 09:25:00,73.6,73.0,29.76,North,0,0.0,0.0,98,0.00,,,0.00,VWS V14.01,2013-06-26 14:25:00,
2013-06-26 09:30:00,73.4,72.8,29.76,NNW,338,4.0,4.0,98,0.00,,,0.00,VWS V14.01,2013-06-26 14:30:00,
2013-06-26 09:35:00,73.4,72.8,29.76,NNE,22,3.4,3.4,98,0.00,,,0.00,VWS V14.01,2013-06-26 14:35:00,
2013-06-26 09:40:00,73.2,72.6,29.76,NW,315,0.0,1.1,98,0.00,,,0.00,VWS V14.01,2013-06-26 14:40:00,
2013-06-26 09:45:00,73.2,72.6,29.76,North,0,1.6,1.6,98,0.00,,,0.00,VWS V14.01,2013-06-26 14:45:00,
2013-06-26 09:51:00,73.4,72.8,29.76,South,180,2.2,2.5,98,0.00,,,0.00,VWS V14.01,2013-06-26 14:51:00,
2013-06-26 09:56:00,73.6,73.0,29.76,SE,135,0.0,2.0,98,0.00,,,0.00,VWS V14.01,2013-06-26 14:56:00,
2013-06-26 10:01:00,73.9,73.3,29.76,East,90,2.7,2.9,98,0.00,,,0.00,VWS V14.01,2013-06-26 15:01:00,
2013-06-26 10:06:00,74.1,73.5,29.76,SE,135,3.1,3.1,98,0.00,,,0.00,VWS V14.01,2013-06-26 15:06:00,
2013-06-26 10:11:00,74.5,73.9,29.76,WNW,292,1.3,2.5,98,0.00,,,0.00,VWS V14.01,2013-06-26 15:11:00,
2013-06-26 10:16:00,74.7,74.1,29.76,SW,225,2.7,2.7,98,0.00,,,0.00,VWS V14.01,2013-06-26 15:16:00,
2013-06-26 10:21:00,74.8,73.9,29.76,SSW,202,2.0,3.8,97,0.00,,,0.00,VWS V14.01,2013-06-26 15:21:00,
2013-06-26 10:26:00,75.4,74.5,29.76,NE,45,1.6,2.7,97,0.00,,,0.00,VWS V14.01,2013-06-26 15:26:00,
2013-06-26 10:31:00,75.7,74.5,29.76,SW,225,2.7,3.4,96,0.00,,,0.00,VWS V14.01,2013-06-26 15:31:00,
2013-06-26 10:36:00,76.1,74.6,29.74,WSW,248,4.3,4.3,95,0.00,,,0.00,VWS V14.01,2013-06-26 15:36:00,
2013-06-26 10:41:00,76.5,74.6,29.74,West,270,3.4,3.4,94,0.00,,,0.00,VWS V14.01,2013-06-26 15:41:00,
2013-06-26 10:46:00,76.8,75.0,29.74,NNE,22,0.0,3.1,94,0.00,,,0.00,VWS V14.01,2013-06-26 15:46:00,
2013-06-26 10:51:00,77.4,75.2,29.76,ENE,68,3.4,3.6,93,0.00,,,0.00,VWS V14.01,2013-06-26 15:51:00,
2013-06-26 10:57:00,77.2,75.0,29.76,ESE,112,2.9,3.6,93,0.00,,,0.00,VWS V14.01,2013-06-26 15:57:00,
2013-06-26 11:02:00,77.0,74.5,29.76,SE,135,0.9,2.2,92,0.00,,,0.00,VWS V14.01,2013-06-26 16:02:00,
2013-06-26 11:07:00,77.2,74.7,29.76,WNW,292,1.6,2.5,92,0.00,,,0.00,VWS V14.01,2013-06-26 16:07:00,
2013-06-26 11:12:00,77.4,74.9,29.76,SSW,202,0.0,3.4,92,0.00,,,0.00,VWS V14.01,2013-06-26 16:12:00,
2013-06-26 11:17:00,78.3,75.8,29.76,SSW,202,1.1,2.7,92,0.00,,,0.00,VWS V14.01,2013-06-26 16:17:00,
2013-06-26 11:22:00,78.8,75.3,29.79,South,180,2.7,3.6,89,0.00,,,0.00,VWS V14.01,2013-06-26 16:22:00,
2013-06-26 11:27:00,79.2,75.6,29.79,WNW,292,2.5,3.4,89,0.00,,,0.00,VWS V14.01,2013-06-26 16:27:00,
2013-06-26 11:32:00,79.5,75.7,29.79,SSE,158,2.0,8.7,88,0.00,,,0.00,VWS V14.01,2013-06-26 16:32:00,
2013-06-26 11:37:00,80.1,75.8,29.76,WNW,292,1.3,2.9,87,0.00,,,0.00,VWS V14.01,2013-06-26 16:37:00,
2013-06-26 11:42:00,81.1,76.6,29.76,West,270,3.1,3.8,86,0.00,,,0.00,VWS V14.01,2013-06-26 16:42:00,
2013-06-26 11:47:00,81.1,75.5,29.76,East,90,1.3,4.3,83,0.00,,,0.00,VWS V14.01,2013-06-26 16:47:00,
2013-06-26 11:53:00,81.7,76.4,29.76,SSE,158,4.0,4.0,84,0.00,,,0.00,VWS V14.01,2013-06-26 16:53:00,
2013-06-26 11:58:00,82.2,76.9,29.76,NE,45,2.7,3.6,84,0.00,,,0.00,VWS V14.01,2013-06-26 16:58:00,
2013-06-26 12:03:00,82.4,74.9,29.76,East,90,3.6,4.3,78,0.00,,,0.00,VWS V14.01,2013-06-26 17:03:00,
2013-06-26 12:08:00,82.6,75.4,29.76,East,90,1.1,3.8,79,0.00,,,0.00,VWS V14.01,2013-06-26 17:08:00,
2013-06-26 12:13:00,83.3,76.1,29.76,WNW,292,2.9,2.9,79,0.00,,,0.00,VWS V14.01,2013-06-26 17:13:00,
2013-06-26 12:18:00,83.7,74.9,29.76,SW,225,1.1,4.7,75,0.00,,,0.00,VWS V14.01,2013-06-26 17:18:00,
2013-06-26 12:23:00,84.4,75.2,29.76,NE,45,3.8,4.3,74,0.00,,,0.00,VWS V14.01,2013-06-26 17:23:00,
2013-06-26 12:28:00,84.7,73.9,29.76,West,270,1.1,4.7,70,0.00,,,0.00,VWS V14.01,2013-06-26 17:28:00,
2013-06-26 12:33:00,84.9,73.2,29.76,WSW,248,1.3,5.4,68,0.00,,,0.00,VWS V14.01,2013-06-26 17:33:00,
2013-06-26 12:38:00,85.3,73.1,29.74,SSE,158,2.7,7.2,67,0.00,,,0.00,VWS V14.01,2013-06-26 17:38:00,
2013-06-26 12:43:00,85.1,72.0,29.74,SSE,158,3.8,6.5,65,0.00,,,0.00,VWS V14.01,2013-06-26 17:43:00,
2013-06-26 12:49:00,85.8,74.0,29.74,ENE,68,2.2,5.6,68,0.00,,,0.00,VWS V14.01,2013-06-26 17:49:00,
2013-06-26 12:54:00,85.6,72.5,29.74,East,90,2.0,6.3,65,0.00,,,0.00,VWS V14.01,2013-06-26 17:54:00,
2013-06-26 12:59:00,86.2,73.5,29.74,North,0,2.2,5.6,66,0.00,,,0.00,VWS V14.01,2013-06-26 17:59:00,
2013-06-26 13:04:00,85.8,71.3,29.74,South,180,5.6,6.3,62,0.00,,,0.00,VWS V14.01,2013-06-26 18:04:00,
2013-06-26 13:09:00,86.5,72.5,29.76,NNE,22,2.0,4.3,63,0.00,,,0.00,VWS V14.01,2013-06-26 18:09:00,
2013-06-26 13:14:00,86.7,73.1,29.76,ENE,68,2.0,7.2,64,0.00,,,0.00,VWS V14.01,2013-06-26 18:14:00,
2013-06-26 13:19:00,86.9,72.8,29.76,NE,45,3.1,4.9,63,0.00,,,0.00,VWS V14.01,2013-06-26 18:19:00,
2013-06-26 13:24:00,87.1,73.9,29.76,WNW,292,2.0,4.7,65,0.00,,,0.00,VWS V14.01,2013-06-26 18:24:00,
2013-06-26 13:29:00,87.3,72.2,29.76,WSW,248,2.7,6.0,61,0.00,,,0.00,VWS V14.01,2013-06-26 18:29:00,
2013-06-26 13:34:00,87.1,73.0,29.76,WSW,248,4.3,4.3,63,0.00,,,0.00,VWS V14.01,2013-06-26 18:34:00,
2013-06-26 13:39:00,87.1,73.4,29.76,West,270,5.4,5.4,64,0.00,,,0.00,VWS V14.01,2013-06-26 18:39:00,
2013-06-26 13:44:00,87.1,73.4,29.76,WNW,292,2.7,5.4,64,0.00,,,0.00,VWS V14.01,2013-06-26 18:44:00,
2013-06-26 13:49:00,87.4,73.8,29.76,WNW,292,2.9,3.1,64,0.00,,,0.00,VWS V14.01,2013-06-26 18:49:00,
2013-06-26 13:54:00,87.1,74.3,29.76,NNE,22,1.1,5.4,66,0.00,,,0.00,VWS V14.01,2013-06-26 18:54:00,
2013-06-26 13:59:00,85.8,73.2,29.76,NNW,338,3.1,5.4,66,0.00,,,0.00,VWS V14.01,2013-06-26 18:59:00,
2013-06-26 14:04:00,84.9,72.8,29.79,West,270,2.0,4.9,67,0.00,,,0.00,VWS V14.01,2013-06-26 19:04:00,
2013-06-26 14:09:00,84.6,73.3,29.79,WNW,292,1.1,3.1,69,0.00,,,0.00,VWS V14.01,2013-06-26 19:09:00,
2013-06-26 14:14:00,84.0,74.0,29.79,West,270,2.7,2.9,72,0.00,,,0.00,VWS V14.01,2013-06-26 19:14:00,
2013-06-26 14:20:00,83.7,73.7,29.76,ESE,112,2.9,2.9,72,0.00,,,0.00,VWS V14.01,2013-06-26 19:20:00,
2013-06-26 14:25:00,83.1,73.6,29.76,SSW,202,1.6,1.6,73,0.00,,,0.00,VWS V14.01,2013-06-26 19:25:00,
2013-06-26 14:30:00,82.6,73.9,29.76,SSE,158,1.3,1.3,75,0.00,,,0.00,VWS V14.01,2013-06-26 19:30:00,
2013-06-26 14:35:00,82.2,73.9,29.76,SSW,202,2.2,2.2,76,0.00,,,0.00,VWS V14.01,2013-06-26 19:35:00,
2013-06-26 14:40:00,81.9,73.9,29.76,SW,225,0.0,1.6,77,0.00,,,0.00,VWS V14.01,2013-06-26 19:40:00,
2013-06-26 14:45:00,81.5,74.0,29.76,SW,225,0.0,0.0,78,0.00,,,0.00,VWS V14.01,2013-06-26 19:45:00,
2013-06-26 14:50:00,81.0,73.8,29.76,SSE,158,0.0,1.1,79,0.00,,,0.00,VWS V14.01,2013-06-26 19:50:00,
2013-06-26 14:55:00,80.6,73.9,29.76,SE,135,0.9,1.3,80,0.00,,,0.00,VWS V14.01,2013-06-26 19:55:00,
2013-06-26 15:00:00,80.4,74.4,29.76,NE,45,0.0,0.9,82,0.00,,,0.00,VWS V14.01,2013-06-26 20:00:00,
2013-06-26 15:06:00,80.1,74.8,29.76,ESE,112,1.6,1.6,84,0.00,,,0.00,VWS V14.01,2013-06-26 20:06:00,
2013-06-26 15:11:00,79.5,74.3,29.76,NE,45,1.1,3.8,84,0.00,,,0.00,VWS V14.01,2013-06-26 20:11:00,
2013-06-26 15:16:00,79.3,74.1,29.76,SE,135,1.1,1.6,84,0.00,,,0.00,VWS V14.01,2013-06-26 20:16:00,
2013-06-26 15:21:00,79.3,74.4,29.76,NNE,22,1.1,2.2,85,0.00,,,0.00,VWS V14.01,2013-06-26 20:21:00,
2013-06-26 15:26:00,79.2,74.3,29.76,NNE,22,1.6,1.6,85,0.00,,,0.00,VWS V14.01,2013-06-26 20:26:00,
2013-06-26 15:31:00,79.0,74.4,29.76,SSW,202,1.6,3.1,86,0.00,,,0.00,VWS V14.01,2013-06-26 20:31:00,
2013-06-26 15:36:00,78.8,74.6,29.76,WNW,292,1.3,2.5,87,0.00,,,0.00,VWS V14.01,2013-06-26 20:36:00,
2013-06-26 15:41:00,78.4,74.2,29.76,WNW,292,0.0,1.3,87,0.00,,,0.00,VWS V14.01,2013-06-26 20:41:00,
2013-06-26 15:46:00,78.1,74.2,29.76,WNW,292,0.0,0.0,88,0.00,,,0.00,VWS V14.01,2013-06-26 20:46:00,
2013-06-26 15:51:00,77.9,74.4,29.74,WNW,292,0.0,0.0,89,0.00,,,0.00,VWS V14.01,2013-06-26 20:51:00,
2013-06-26 15:57:00,77.4,74.5,29.74,WNW,292,0.0,0.9,91,0.00,,,0.00,VWS V14.01,2013-06-26 20:57:00,
2013-06-26 16:02:00,76.6,73.8,29.74,WNW,292,0.0,0.0,91,0.00,,,0.00,VWS V14.01,2013-06-26 21:02:00,
2013-06-26 16:07:00,76.3,74.1,29.74,WNW,292,0.0,0.9,93,0.00,,,0.00,VWS V14.01,2013-06-26 21:07:00,
2013-06-26 16:12:00,75.9,73.8,29.74,WNW,292,0.0,0.0,93,0.00,,,0.00,VWS V14.01,2013-06-26 21:12:00,
2013-06-26 16:17:00,75.6,74.0,29.74,SSW,202,1.3,2.5,95,0.00,,,0.00,VWS V14.01,2013-06-26 21:17:00,
2013-06-26 16:22:00,75.4,73.5,29.76,SSW,202,1.6,1.6,94,0.00,,,0.00,VWS V14.01,2013-06-26 21:22:00,
2013-06-26 16:27:00,75.0,73.5,29.76,WNW,292,2.0,2.9,95,0.00,,,0.00,VWS V14.01,2013-06-26 21:27:00,
2013-06-26 16:32:00,74.5,72.3,29.76,NE,45,5.4,5.6,93,0.04,,,0.04,VWS V14.01,2013-06-26 21:32:00,
2013-06-26 16:37:00,72.5,69.4,29.76,WNW,292,4.5,4.5,90,0.08,,,0.08,VWS V14.01,2013-06-26 21:37:00,
2013-06-26 16:43:00,71.1,68.3,29.76,WNW,292,2.7,5.8,91,0.08,,,0.08,VWS V14.01,2013-06-26 21:43:00,
2013-06-26 16:48:00,70.2,68.1,29.76,NNE,22,3.6,4.7,93,0.08,,,0.08,VWS V14.01,2013-06-26 21:48:00,
2013-06-26 16:53:00,69.6,68.4,29.79,ENE,68,4.5,8.5,96,0.12,,,0.12,VWS V14.01,2013-06-26 21:53:00,
2013-06-26 16:58:00,69.4,68.6,29.79,East,90,2.9,4.7,97,0.12,,,0.12,VWS V14.01,2013-06-26 21:58:00,
2013-06-26 17:03:00,69.3,68.4,29.79,East,90,2.7,6.0,97,0.29,,,0.29,VWS V14.01,2013-06-26 22:03:00,
2013-06-26 17:08:00,69.4,68.8,29.79,ENE,68,1.3,3.8,98,0.29,,,0.29,VWS V14.01,2013-06-26 22:08:00,
2013-06-26 17:13:00,70.0,69.1,29.79,East,90,2.2,2.2,97,0.29,,,0.29,VWS V14.01,2013-06-26 22:13:00,
2013-06-26 17:18:00,71.1,70.5,29.79,ENE,68,1.1,2.5,98,0.29,,,0.29,VWS V14.01,2013-06-26 22:18:00,
2013-06-26 17:23:00,72.0,71.4,29.76,ENE,68,1.3,2.7,98,0.29,,,0.29,VWS V14.01,2013-06-26 22:23:00,
2013-06-26 17:29:00,73.4,72.5,29.76,ENE,68,0.0,1.3,97,0.29,,,0.29,VWS V14.01,2013-06-26 22:29:00,
2013-06-26 17:34:00,74.7,73.1,29.76,ENE,68,0.0,2.2,95,0.29,,,0.29,VWS V14.01,2013-06-26 22:34:00,
2013-06-26 17:39:00,75.7,74.2,29.76,SSW,202,1.3,2.0,95,0.25,,,0.29,VWS V14.01,2013-06-26 22:39:00,
2013-06-26 17:44:00,76.6,75.1,29.76,South,180,1.6,2.7,95,0.21,,,0.29,VWS V14.01,2013-06-26 22:44:00,
2013-06-26 17:49:00,77.5,75.4,29.76,South,180,2.0,2.0,93,0.21,,,0.29,VWS V14.01,2013-06-26 22:49:00,
2013-06-26 17:54:00,77.7,74.9,29.76,ESE,112,1.3,2.7,91,0.21,,,0.29,VWS V14.01,2013-06-26 22:54:00,
2013-06-26 17:59:00,78.1,74.9,29.76,ESE,112,0.0,2.2,90,0.17,,,0.29,VWS V14.01,2013-06-26 22:59:00,
2013-06-26 18:04:00,78.3,75.1,29.74,East,90,0.0,2.2,90,0.17,,,0.29,VWS V14.01,2013-06-26 23:04:00,
2013-06-26 18:09:00,78.6,75.4,29.74,SSE,158,1.3,1.3,90,0.00,,,0.29,VWS V14.01,2013-06-26 23:09:00,
2013-06-26 18:14:00,78.8,75.3,29.74,ESE,112,2.0,2.5,89,0.00,,,0.29,VWS V14.01,2013-06-26 23:14:00,
2013-06-26 18:19:00,79.3,76.2,29.76,ESE,112,0.0,2.0,90,0.00,,,0.29,VWS V14.01,2013-06-26 23:19:00,
2013-06-26 18:24:00,79.5,75.7,29.76,ESE,112,0.0,1.1,88,0.00,,,0.29,VWS V14.01,2013-06-26 23:24:00,
2013-06-26 18:29:00,79.7,75.8,29.76,ESE,112,2.0,2.5,88,0.00,,,0.29,VWS V14.01,2013-06-26 23:29:00,
2013-06-26 18:34:00,79.7,75.8,29.76,SSW,202,1.3,2.0,88,0.00,,,0.29,VWS V14.01,2013-06-26 23:34:00,
2013-06-26 18:39:00,79.7,75.5,29.76,West,270,1.1,2.2,87,0.00,,,0.29,VWS V14.01,2013-06-26 23:39:00,
2013-06-26 18:44:00,79.7,75.8,29.76,West,270,0.0,1.3,88,0.00,,,0.29,VWS V14.01,2013-06-26 23:44:00,
2013-06-26 18:49:00,79.7,75.8,29.76,West,270,0.0,0.0,88,0.00,,,0.29,VWS V14.01,2013-06-26 23:49:00,
2013-06-26 18:55:00,79.5,75.7,29.76,West,270,0.0,0.0,88,0.00,,,0.29,VWS V14.01,2013-06-26 23:55:00,
2013-06-26 19:00:00,79.3,75.5,29.76,West,270,0.0,0.0,88,0.00,,,0.29,VWS V14.01,2013-06-27 00:00:00,
2013-06-26 19:05:00,79.0,75.1,29.76,West,270,0.0,0.0,88,0.00,,,0.29,VWS V14.01,2013-06-27 00:05:00,
2013-06-26 19:10:00,78.6,75.1,29.76,West,270,0.0,0.0,89,0.00,,,0.29,VWS V14.01,2013-06-27 00:10:00,
2013-06-26 19:15:00,77.7,74.6,29.76,West,270,0.0,0.0,90,0.00,,,0.29,VWS V14.01,2013-06-27 00:15:00,
2013-06-26 19:20:00,77.2,74.3,29.74,West,270,0.0,0.0,91,0.00,,,0.29,VWS V14.01,2013-06-27 00:20:00,
2013-06-26 19:25:00,76.6,74.2,29.74,West,270,0.0,0.0,92,0.00,,,0.29,VWS V14.01,2013-06-27 00:25:00,
2013-06-26 19:30:00,76.3,74.1,29.74,West,270,0.0,0.0,93,0.00,,,0.29,VWS V14.01,2013-06-27 00:30:00,
2013-06-26 19:35:00,75.9,74.1,29.79,West,270,0.0,0.0,94,0.00,,,0.29,VWS V14.01,2013-06-27 00:35:00,
2013-06-26 19:40:00,75.7,73.9,29.79,West,270,0.0,0.0,94,0.00,,,0.29,VWS V14.01,2013-06-27 00:40:00,
2013-06-26 19:45:00,75.4,73.5,29.79,West,270,0.0,0.0,94,0.00,,,0.29,VWS V14.01,2013-06-27 00:45:00,
2013-06-26 19:51:00,75.2,73.7,29.76,West,270,0.0,0.0,95,0.00,,,0.29,VWS V14.01,2013-06-27 00:51:00,
2013-06-26 19:56:00,75.0,73.5,29.76,West,270,0.0,0.0,95,0.00,,,0.29,VWS V14.01,2013-06-27 00:56:00,
2013-06-26 20:01:00,74.8,73.3,29.76,West,270,0.0,0.0,95,0.00,,,0.29,VWS V14.01,2013-06-27 01:01:00,
2013-06-26 20:06:00,74.7,73.1,29.74,West,270,0.0,0.0,95,0.00,,,0.29,VWS V14.01,2013-06-27 01:06:00,
2013-06-26 20:11:00,74.5,73.3,29.74,West,270,0.0,0.0,96,0.00,,,0.29,VWS V14.01,2013-06-27 01:11:00,
2013-06-26 20:16:00,74.3,73.1,29.74,West,270,0.0,0.0,96,0.00,,,0.29,VWS V14.01,2013-06-27 01:16:00,
2013-06-26 20:21:00,74.1,72.9,29.76,West,270,0.0,0.0,96,0.00,,,0.29,VWS V14.01,2013-06-27 01:21:00,
2013-06-26 20:26:00,73.9,72.7,29.76,West,270,0.0,0.0,96,0.00,,,0.29,VWS V14.01,2013-06-27 01:26:00,
2013-06-26 20:31:00,73.8,72.9,29.76,West,270,0.0,0.0,97,0.00,,,0.29,VWS V14.01,2013-06-27 01:31:00,
2013-06-26 20:36:00,73.8,72.9,29.76,West,270,0.0,0.0,97,0.00,,,0.29,VWS V14.01,2013-06-27 01:36:00,
2013-06-26 20:41:00,73.6,72.7,29.76,West,270,0.0,0.0,97,0.00,,,0.29,VWS V14.01,2013-06-27 01:41:00,
2013-06-26 20:46:00,73.6,72.7,29.76,West,270,0.0,0.0,97,0.00,,,0.29,VWS V14.01,2013-06-27 01:46:00,
2013-06-26 20:51:00,73.4,72.5,29.76,West,270,0.0,0.0,97,0.00,,,0.29,VWS V14.01,2013-06-27 01:51:00,
2013-06-26 20:57:00,73.2,72.3,29.76,West,270,0.0,0.0,97,0.00,,,0.29,VWS V14.01,2013-06-27 01:57:00,
2013-06-26 21:02:00,73.2,72.3,29.76,West,270,0.0,0.0,97,0.00,,,0.29,VWS V14.01,2013-06-27 02:02:00,
2013-06-26 21:07:00,73.0,72.1,29.76,West,270,0.0,0.0,97,0.00,,,0.29,VWS V14.01,2013-06-27 02:07:00,
2013-06-26 21:12:00,72.7,71.8,29.76,West,270,0.0,0.0,97,0.00,,,0.29,VWS V14.01,2013-06-27 02:12:00,
2013-06-26 21:17:00,72.7,71.8,29.76,West,270,0.9,1.6,97,0.00,,,0.29,VWS V14.01,2013-06-27 02:17:00,
2013-06-26 21:22:00,72.7,72.1,29.79,WNW,292,2.5,2.7,98,0.00,,,0.29,VWS V14.01,2013-06-27 02:22:00,
2013-06-26 21:27:00,72.9,72.3,29.79,WSW,248,1.6,1.6,98,0.00,,,0.29,VWS V14.01,2013-06-27 02:27:00,
2013-06-26 21:32:00,72.7,72.1,29.79,WSW,248,0.0,0.0,98,0.00,,,0.29,VWS V14.01,2013-06-27 02:32:00,
2013-06-26 21:37:00,72.5,71.9,29.79,WSW,248,0.0,0.0,98,0.00,,,0.29,VWS V14.01,2013-06-27 02:37:00,
2013-06-26 21:42:00,72.5,71.9,29.79,WSW,248,0.0,0.0,98,0.00,,,0.29,VWS V14.01,2013-06-27 02:42:00,
2013-06-26 21:47:00,72.3,71.7,29.79,WSW,248,0.0,0.0,98,0.00,,,0.29,VWS V14.01,2013-06-27 02:47:00,
2013-06-26 21:53:00,72.3,71.7,29.79,WSW,248,0.0,0.0,98,0.00,,,0.29,VWS V14.01,2013-06-27 02:53:00,
2013-06-26 21:58:00,72.1,71.6,29.79,WSW,248,0.0,0.0,98,0.00,,,0.29,VWS V14.01,2013-06-27 02:58:00,
2013-06-26 22:03:00,72.1,71.6,29.79,WSW,248,0.0,0.0,98,0.00,,,0.29,VWS V14.01,2013-06-27 03:03:00,
2013-06-26 22:08:00,71.8,71.2,29.79,WSW,248,0.0,0.0,98,0.00,,,0.29,VWS V14.01,2013-06-27 03:08:00,
2013-06-26 22:13:00,71.6,71.0,29.79,WSW,248,0.0,0.0,98,0.00,,,0.29,VWS V14.01,2013-06-27 03:13:00,
2013-06-26 22:18:00,71.4,70.8,29.79,WSW,248,0.0,0.0,98,0.00,,,0.29,VWS V14.01,2013-06-27 03:18:00,
2013-06-26 22:23:00,71.2,70.7,29.82,WSW,248,0.0,0.0,98,0.00,,,0.29,VWS V14.01,2013-06-27 03:23:00,
2013-06-26 22:28:00,71.1,70.5,29.82,WSW,248,0.0,0.0,98,0.00,,,0.29,VWS V14.01,2013-06-27 03:28:00,
2013-06-26 22:33:00,70.9,70.3,29.82,WSW,248,0.0,0.0,98,0.00,,,0.29,VWS V14.01,2013-06-27 03:33:00,
2013-06-26 22:38:00,70.7,70.1,29.82,WSW,248,0.0,0.0,98,0.00,,,0.29,VWS V14.01,2013-06-27 03:38:00,
2013-06-26 22:43:00,70.5,69.9,29.82,WSW,248,0.0,0.0,98,0.00,,,0.29,VWS V14.01,2013-06-27 03:43:00,
2013-06-26 22:48:00,70.3,69.8,29.82,WSW,248,0.0,0.0,98,0.00,,,0.29,VWS V14.01,2013-06-27 03:48:00,
2013-06-26 22:53:00,70.2,69.6,29.82,WSW,248,0.0,0.0,98,0.00,,,0.29,VWS V14.01,2013-06-27 03:53:00,
2013-06-26 22:59:00,70.2,69.6,29.82,WSW,248,0.0,0.0,98,0.00,,,0.29,VWS V14.01,2013-06-27 03:59:00,
2013-06-26 23:01:00,70.0,69.4,29.82,WSW,248,0.0,0.0,98,0.00,,,0.29,VWS V14.01,2013-06-27 04:01:00,
2013-06-26 23:02:00,70.0,69.4,29.82,WSW,248,0.0,0.0,98,0.00,,,0.29,VWS V14.01,2013-06-27 04:02:00,
2013-06-26 23:03:00,70.0,69.4,29.82,WSW,248,0.0,0.0,98,0.00,,,0.29,VWS V14.01,2013-06-27 04:03:00,
2013-06-26 23:08:00,69.8,69.2,29.82,WSW,248,0.0,0.0,98,0.00,,,0.29,VWS V14.01,2013-06-27 04:08:00,
2013-06-26 23:14:00,69.6,69.0,29.82,WSW,248,0.0,0.0,98,0.00,,,0.29,VWS V14.01,2013-06-27 04:14:00,
2013-06-26 23:19:00,69.4,68.8,29.82,WSW,248,0.0,0.0,98,0.00,,,0.29,VWS V14.01,2013-06-27 04:19:00,
2013-06-26 23:24:00,69.4,68.8,29.82,WSW,248,0.0,0.0,98,0.00,,,0.29,VWS V14.01,2013-06-27 04:24:00,
2013-06-26 23:29:00,69.3,68.7,29.82,WSW,248,0.0,0.0,98,0.00,,,0.29,VWS V14.01,2013-06-27 04:29:00,
2013-06-26 23:34:00,69.1,68.5,29.82,WSW,248,0.0,0.0,98,0.00,,,0.29,VWS V14.01,2013-06-27 04:34:00,
2013-06-26 23:39:00,69.1,68.5,29.82,WSW,248,0.0,0.0,98,0.00,,,0.29,VWS V14.01,2013-06-27 04:39:00,
2013-06-26 23:44:00,68.9,68.3,29.82,WSW,248,0.0,0.0,98,0.00,,,0.29,VWS V14.01,2013-06-27 04:44:00,
2013-06-26 23:49:00,68.7,68.1,29.82,WSW,248,0.0,0.0,98,0.00,,,0.29,VWS V14.01,2013-06-27 04:49:00,
2013-06-26 23:54:00,68.7,68.1,29.82,WSW,248,0.0,0.0,98,0.00,,,0.29,VWS V14.01,2013-06-27 04:54:00,
2013-06-26 23:59:00,68.5,68.0,29.82,WSW,248,0.0,0.0,98,0.00,,,0.00,VWS V14.01,2013-06-27 04:59:00,